createdAt,value
2023-05-24T00:10:06.171Z,5.8
2023-05-24T00:40:10.102Z,5.5
2023-05-24T01:20:16.188Z,5.1
2023-05-24T01:50:22.501Z,4.5
2023-05-24T03:00:32.215Z,4
2023-05-24T03:20:35.324Z,4
2023-05-24T03:30:36.604Z,4
2023-05-24T03:40:38.185Z,4
2023-05-24T03:50:40.311Z,4
2023-05-24T04:00:41.455Z,4.1
2023-05-24T04:10:43.508Z,4.1
2023-05-24T04:20:44.749Z,4.5
2023-05-24T04:30:46.166Z,4.9
2023-05-24T04:40:47.914Z,5.5
2023-05-24T05:00:51.435Z,6.7
2023-05-24T05:10:53.030Z,7
2023-05-24T05:20:54.174Z,7.3
2023-05-24T05:30:55.759Z,7.7
2023-05-24T05:40:57.248Z,7.9
2023-05-24T05:50:59.144Z,8
2023-05-24T06:01:00.822Z,8.3
2023-05-24T06:21:03.167Z,8.6
2023-05-24T06:31:05.162Z,8.8
2023-05-24T06:51:07.833Z,9.3
2023-05-24T07:01:09.859Z,9.7
2023-05-24T07:11:11.362Z,10.2
2023-05-24T07:21:12.711Z,10
2023-05-24T07:31:13.994Z,10.3
2023-05-24T07:41:15.512Z,10.5
2023-05-24T07:51:16.824Z,10.8
2023-05-24T08:01:18.196Z,10.8
2023-05-24T08:11:19.276Z,10.9
2023-05-24T08:21:21.242Z,11.3
2023-05-24T08:31:22.479Z,12.3
2023-05-24T08:41:23.802Z,11.6
2023-05-24T08:51:25.526Z,11.5
2023-05-24T09:01:29.881Z,11.2
2023-05-24T09:11:29.016Z,11.8
2023-05-24T09:21:30.503Z,12.9
2023-05-24T09:31:31.666Z,12.6
2023-05-24T09:41:33.021Z,12.2
2023-05-24T09:51:34.929Z,12
2023-05-24T10:01:36.552Z,12.4
2023-05-24T10:21:39.607Z,13.7
2023-05-24T10:41:42.643Z,12.5
2023-05-24T10:51:44.651Z,12.6
2023-05-24T11:01:46.092Z,12.3
2023-05-24T11:11:47.932Z,12.4
2023-05-24T13:32:08.088Z,13
2023-05-24T13:52:11.225Z,13.2
2023-05-24T15:42:28.839Z,15.5
2023-05-24T15:52:30.712Z,15.4
2023-05-24T16:02:32.383Z,15
2023-05-24T16:12:33.575Z,14.7
2023-05-24T16:22:34.772Z,14.6
2023-05-24T16:32:36.086Z,14.4
2023-05-24T16:52:39.508Z,14.6
2023-05-24T17:12:43.152Z,14.4
2023-05-24T17:32:46.258Z,14.2
2023-05-24T17:52:48.752Z,14.3
2023-05-24T18:12:52.269Z,14.2
2023-05-24T18:33:04.869Z,14.7
2023-05-24T18:52:59.028Z,13.8
2023-05-24T19:13:02.073Z,13.4
2023-05-24T19:33:05.383Z,13
2023-05-24T19:53:08.681Z,12
2023-05-24T19:53:52.442Z,11.9
2023-05-24T20:23:20.689Z,11.1
2023-05-24T20:33:21.919Z,11
2023-05-24T20:43:23.512Z,10.9
2023-05-24T20:53:25.587Z,10.8
2023-05-24T21:03:27.272Z,10.4
2023-05-24T21:13:29.050Z,9.6
2023-05-24T21:23:30.943Z,9.7
2023-05-24T21:33:32.141Z,9.9
2023-05-24T21:43:33.567Z,9.8
2023-05-24T21:53:35.384Z,9.5
2023-05-24T22:03:37.592Z,9.6
2023-05-24T22:13:39.406Z,9.5
2023-05-24T22:23:41.144Z,9.6
2023-05-24T22:33:42.681Z,9.4
2023-05-24T22:43:43.778Z,9.2
2023-05-24T22:53:45.056Z,9.2
2023-05-24T23:03:46.635Z,9.4
2023-05-24T23:13:48.464Z,9.6
2023-05-24T23:23:50.043Z,9.4
2023-05-24T23:43:52.793Z,8.6
